Pensacola Naval Air Station/Forrest Sherman field
KNPA : now visible

Airfield :











YOU CAN JOIN US ON...

 
LOGIN :

Register | Disclaimer

   EN    FR    IT 

 









Legend :    VFR   Marginal VFR   IFR   Intensive IFR   Very Intensive IFR
Visi :
Ceiling :
>= 8 km
>= 3000ft
5 to 8 km
1000 to 3000 ft
1500m to 5 km
500 to 1000 ft
800 to 1500m
200 to 500 ft
< 800m
< 200 ft
Symbols :   Thunderstorms  Fog  Heavy snow  Heavy precipitations  Wind > 20 kt







- Airport Elevation : 28 ft


KNPA - Pensacola Naval Air Station/Forrest Sherman field

CURRENT METAR :
  • 200856Z AUTO 07011KT 10SM FEW036 25/20 A3008 RMK AO2 SLP186 T02500200 53001

EXPIRED METARs :
  • 200756Z AUTO 07013KT 10SM CLR 25/18 A3007 RMK AO2 SLP183 T02500183
  • 200656Z AUTO 07009KT 10SM CLR 24/19 A3007 RMK AO2 SLP184 T02440189

TAF TAF KNPA
Valid from the 20 at 07:00 until the 21 at 07:00 UTC


2007/2107 12010KT 9999 SCT025 SCT100 BKN250 QNH3001INS
FM201100 08014G22KT 9999 BKN020 BKN250 QNH3010INS
FM201800 12012G20KT 9999 FEW030 SCT250 QNH3008INS
FM210300 08010KT 9999 VCSH FEW035 SCT040 SCT250 QNH3009INS AUTOMATED SENSOR METWATCH 2007 TIL 2011 T23/2011Z T32/2019Z FN00198
No reported NOTAMs for that airfield.



MET'MAP, your aeronautical weather chart ! - Copyright ORBIFLY December 2007 - Disclaimer

ORBIFLY MET'MAP TEAM :

Programming & Development : Alexandra Zaïnal
Concept & Development : Baudouin d'Aumeries
Co-Development & Prog : Marc-Olivier Méhu
Technical & hardware support : Manuel Goepfert

Contact : metmap@orbifly.com




SOURCES & CREDITS :

   NOAA       Earth
Advisory